Time;durP1;ratioP1;P1;durP2;ratioP2;P2;SDS_P1;SDS_P2;PMS_P1;PMS_P2;Temp;Humidity;BMP_temperature;BMP_pressure;BME280_temperature;BME280_humidity;BME280_pressure;Samples;Min_cycle;Max_cycle;Signal;HPM_P1;HPM_P2
2021/06/11 00:01:29;;;;;;;6.88;6.15;;;;;;;17.74;72.28;100203.00;6340070;22;20002;-74
2021/06/11 00:03:55;;;;;;;6.70;6.20;;;;;;;17.71;72.46;100198.94;6339813;22;20430;-75
2021/06/11 00:06:21;;;;;;;6.60;6.10;;;;;;;17.70;72.72;100199.38;6340081;22;20018;-76
2021/06/11 00:08:46;;;;;;;7.05;6.45;;;;;;;17.67;72.83;100198.16;6339621;22;20018;-75
2021/06/11 00:11:12;;;;;;;6.72;6.22;;;;;;;17.58;73.17;100197.00;6313599;22;20010;-76
2021/06/11 00:13:38;;;;;;;6.97;6.47;;;;;;;17.63;73.14;100200.22;6339606;22;20030;-75
2021/06/11 00:16:03;;;;;;;6.70;6.13;;;;;;;17.56;73.20;100203.06;6339508;22;20059;-75
2021/06/11 00:18:29;;;;;;;6.65;6.15;;;;;;;17.53;72.87;100192.63;6339466;22;20051;-74
2021/06/11 00:20:57;;;;;;;6.78;6.28;;;;;;;17.55;72.83;100190.19;6339420;22;20017;-75
2021/06/11 00:23:26;;;;;;;8.75;6.82;;;;;;;17.57;73.31;100184.94;6339256;22;20018;-75
2021/06/11 00:25:52;;;;;;;6.57;6.07;;;;;;;17.55;73.58;100190.19;6339415;22;20010;-76
2021/06/11 00:28:18;;;;;;;7.78;7.03;;;;;;;17.54;73.53;100180.16;6341087;22;20007;-75
2021/06/11 00:30:44;;;;;;;7.00;6.45;;;;;;;17.66;72.76;100190.16;6339761;22;20013;-75
2021/06/11 00:33:10;;;;;;;7.43;6.43;;;;;;;17.62;72.30;100173.28;6339421;22;20010;-75
2021/06/11 00:35:38;;;;;;;6.63;6.03;;;;;;;17.68;72.74;100187.72;6339372;22;20033;-74
2021/06/11 00:38:05;;;;;;;7.57;7.00;;;;;;;17.59;72.17;100185.38;6340088;22;20007;-75
2021/06/11 00:40:32;;;;;;;6.50;5.97;;;;;;;17.54;72.76;100180.16;6339536;22;20002;-75
2021/06/11 00:42:57;;;;;;;9.38;6.20;;;;;;;17.53;72.59;100175.75;6339365;22;20543;-74
2021/06/11 00:45:26;;;;;;;6.65;6.15;;;;;;;17.55;72.61;100176.94;6339589;22;20011;-74
2021/06/11 00:47:51;;;;;;;7.93;6.50;;;;;;;17.61;72.69;100174.50;6339247;22;19999;-74
2021/06/11 00:50:21;;;;;;;5.68;5.28;;;;;;;17.55;72.92;100173.31;6339197;22;20013;-75
2021/06/11 00:52:47;;;;;;;5.90;5.40;;;;;;;17.56;72.86;100166.47;6339586;22;20319;-74
2021/06/11 00:55:12;;;;;;;6.22;5.70;;;;;;;17.48;72.83;100167.75;6313493;22;20014;-76
2021/06/11 00:57:38;;;;;;;6.43;5.82;;;;;;;17.45;72.92;100169.34;6339439;22;20007;-75
2021/06/11 01:00:07;;;;;;;5.93;5.43;;;;;;;17.47;72.78;100174.56;6339365;22;20034;-74
2021/06/11 01:02:33;;;;;;;6.22;5.70;;;;;;;17.44;72.95;100173.38;6339135;22;20007;-74
2021/06/11 01:04:58;;;;;;;5.65;5.28;;;;;;;17.42;72.82;100172.22;6339101;22;20144;-75
2021/06/11 01:07:24;;;;;;;6.95;6.35;;;;;;;17.43;72.98;100174.59;6339779;22;20007;-76
2021/06/11 01:09:54;;;;;;;6.22;5.63;;;;;;;17.44;72.83;100179.00;6338074;22;20312;-76
2021/06/11 01:12:20;;;;;;;5.95;5.50;;;;;;;17.41;72.32;100173.38;6340682;22;20003;-75
2021/06/11 01:14:46;;;;;;;5.32;4.93;;;;;;;17.41;71.84;100171.38;6339052;22;20064;-74
2021/06/11 01:17:13;;;;;;;5.80;5.18;;;;;;;17.41;71.89;100170.56;6314020;22;20018;-75
2021/06/11 01:19:43;;;;;;;5.60;5.20;;;;;;;17.41;71.22;100168.56;6339202;22;20480;-75
2021/06/11 01:22:31;;;;;;;5.28;4.88;;;;;;;17.40;70.95;100174.59;6338951;22;20014;-75
2021/06/11 01:25:10;;;;;;;5.80;5.30;;;;;;;17.39;71.17;100170.19;6338376;22;20347;-74
2021/06/11 01:27:38;;;;;;;5.30;4.90;;;;;;;17.36;71.39;100171.00;6339287;22;20006;-75
2021/06/11 01:30:25;;;;;;;4.65;4.35;;;;;;;17.34;71.49;100165.81;6339625;22;20002;-74
2021/06/11 01:32:55;;;;;;;5.40;5.10;;;;;;;17.43;70.92;100162.56;6339431;22;20445;-74
2021/06/11 01:35:33;;;;;;;5.60;5.20;;;;;;;17.38;70.91;100158.16;6339172;22;20034;-74
2021/06/11 01:38:02;;;;;;;5.68;5.28;;;;;;;17.38;71.01;100154.53;6339114;22;20323;-74
2021/06/11 01:40:33;;;;;;;5.47;5.07;;;;;;;17.37;71.29;100148.13;6338687;22;20090;-74
2021/06/11 01:43:01;;;;;;;5.93;5.40;;;;;;;17.38;71.53;100146.91;6313408;22;20017;-74
2021/06/11 01:45:27;;;;;;;5.00;4.70;;;;;;;17.41;71.25;100139.66;6338727;22;20086;-74
2021/06/11 01:47:54;;;;;;;4.65;4.30;;;;;;;17.40;70.55;100140.84;6338701;22;20032;-74
2021/06/11 01:50:24;;;;;;;5.22;4.90;;;;;;;17.24;71.14;100135.72;6339099;22;20002;-74
2021/06/11 01:52:54;;;;;;;5.20;4.70;;;;;;;17.24;71.67;100146.97;6338713;22;20037;-75
2021/06/11 01:55:20;;;;;;;5.35;4.95;;;;;;;17.21;71.45;100145.78;6339084;22;20300;-74
2021/06/11 01:57:50;;;;;;;6.03;5.53;;;;;;;17.20;71.54;100144.16;6338660;22;20006;-74
2021/06/11 02:00:17;;;;;;;5.03;4.63;;;;;;;17.13;71.81;100138.59;6338491;22;20081;-74
2021/06/11 02:02:44;;;;;;;5.20;4.80;;;;;;;17.10;71.78;100145.03;6338667;22;20010;-75
2021/06/11 02:05:10;;;;;;;5.45;5.05;;;;;;;17.18;71.92;100143.78;6313230;22;20101;-74
2021/06/11 02:07:40;;;;;;;5.50;5.10;;;;;;;17.09;71.86;100134.19;6339262;22;20006;-76
2021/06/11 02:10:08;;;;;;;5.53;5.03;;;;;;;17.14;71.24;100143.00;6338934;22;20419;-74
2021/06/11 02:12:34;;;;;;;5.22;4.82;;;;;;;17.18;70.59;100143.78;6334042;22;20015;-75
2021/06/11 02:15:01;;;;;;;4.80;4.50;;;;;;;17.16;70.21;100157.47;6338477;22;20026;-74
2021/06/11 02:17:29;;;;;;;4.40;4.10;;;;;;;17.07;70.34;100148.66;6339284;22;20367;-74
2021/06/11 02:19:56;;;;;;;4.30;4.00;;;;;;;16.99;70.34;100153.50;6338562;22;20002;-74
2021/06/11 02:22:22;;;;;;;5.15;4.75;;;;;;;16.99;70.95;100153.50;6338868;22;20007;-76
2021/06/11 02:24:48;;;;;;;5.22;4.82;;;;;;;16.98;70.62;100148.28;6338042;22;20446;-75
2021/06/11 02:27:15;;;;;;;5.60;5.10;;;;;;;17.03;70.51;100153.47;6338456;22;20007;-74
2021/06/11 02:29:41;;;;;;;4.88;4.47;;;;;;;16.92;70.88;100147.09;6338792;22;20090;-75
2021/06/11 02:32:07;;;;;;;5.68;4.80;;;;;;;16.96;71.06;100153.50;6338317;22;20030;-74
2021/06/11 02:34:33;;;;;;;6.72;6.10;;;;;;;17.07;71.02;100150.66;6338136;22;20013;-74
2021/06/11 02:36:59;;;;;;;5.30;4.90;;;;;;;17.13;71.10;100146.22;6338341;22;20093;-75
2021/06/11 02:39:25;;;;;;;6.20;5.70;;;;;;;17.13;71.07;100147.00;6338621;22;20482;-75
2021/06/11 02:42:03;;;;;;;5.55;5.15;;;;;;;17.14;71.13;100148.63;6338788;22;20041;-75
2021/06/11 02:44:36;;;;;;;6.15;5.65;;;;;;;17.16;71.39;100146.22;6338278;22;20022;-75
2021/06/11 02:47:08;;;;;;;6.50;5.47;;;;;;;17.19;71.34;100145.38;6338964;22;20006;-75
2021/06/11 02:50:03;;;;;;;8.38;5.72;;;;;;;17.06;71.28;100129.41;6338852;22;20395;-74
2021/06/11 02:52:32;;;;;;;5.88;5.38;;;;;;;17.19;71.75;100151.00;6334367;22;20446;-75
2021/06/11 02:55:01;;;;;;;6.00;5.55;;;;;;;17.22;71.94;100147.38;6338575;22;20052;-74
2021/06/11 02:57:34;;;;;;;6.35;5.90;;;;;;;17.19;71.50;100148.19;6338549;22;20010;-74
2021/06/11 03:00:08;;;;;;;5.75;5.35;;;;;;;17.12;72.14;100144.63;6338061;22;20419;-75
2021/06/11 03:02:38;;;;;;;5.68;5.28;;;;;;;17.14;72.37;100151.44;6338145;22;20081;-74
2021/06/11 03:05:05;;;;;;;6.35;5.95;;;;;;;17.09;72.65;100162.28;6338155;22;20014;-75
2021/06/11 03:07:34;;;;;;;5.47;4.97;;;;;;;17.15;71.98;100155.03;6338322;22;20312;-74
2021/06/11 03:10:03;;;;;;;6.95;5.30;;;;;;;17.20;71.88;100160.22;6337996;22;20011;-74
2021/06/11 03:12:33;;;;;;;6.30;5.80;;;;;;;17.11;72.00;100155.06;6337971;22;20037;-75
2021/06/11 03:14:59;;;;;;;6.22;5.68;;;;;;;17.14;71.82;100153.44;6339262;22;20007;-75
2021/06/11 03:17:36;;;;;;;5.53;5.10;;;;;;;17.10;71.57;100145.03;6338546;22;20011;-74
2021/06/11 03:20:08;;;;;;;5.68;5.18;;;;;;;17.16;71.08;100146.22;6338261;22;20094;-74
2021/06/11 03:22:40;;;;;;;6.18;5.70;;;;;;;17.06;71.76;100144.25;6339686;22;19998;-74
2021/06/11 03:25:19;;;;;;;9.85;8.52;;;;;;;17.08;71.27;100138.22;6337392;22;20066;-74
2021/06/11 03:27:56;;;;;;;12.18;11.13;;;;;;;16.99;72.08;100153.50;6338707;22;20350;-74
2021/06/11 03:30:26;;;;;;;9.95;9.05;;;;;;;17.01;72.47;100150.28;6338332;22;20030;-74
2021/06/11 03:32:57;;;;;;;10.30;9.40;;;;;;;16.99;71.83;100144.25;6337487;22;20007;-74
2021/06/11 03:35:34;;;;;;;9.10;8.20;;;;;;;16.99;71.47;100152.69;6313163;22;20399;-75
2021/06/11 03:38:03;;;;;;;7.90;7.30;;;;;;;17.05;71.51;100151.09;6337507;22;20060;-75
2021/06/11 03:40:35;;;;;;;7.25;6.70;;;;;;;17.05;70.97;100145.47;6337768;22;20006;-74
2021/06/11 03:43:01;;;;;;;6.18;5.25;;;;;;;17.13;71.00;100149.81;6338532;22;20014;-74
2021/06/11 03:45:30;;;;;;;5.75;5.25;;;;;;;17.10;70.58;100147.84;6337875;22;20331;-74
2021/06/11 03:48:03;;;;;;;7.35;6.50;;;;;;;17.19;70.19;100156.63;6337614;22;20003;-73
2021/06/11 03:50:30;;;;;;;7.13;6.55;;;;;;;17.21;70.37;100159.84;6337897;22;20434;-74
2021/06/11 03:52:58;;;;;;;9.70;9.00;;;;;;;17.27;69.75;100152.59;6337594;22;20029;-74
2021/06/11 03:55:28;;;;;;;9.57;8.68;;;;;;;17.36;69.90;100156.94;6337830;22;20485;-74
2021/06/11 03:58:05;;;;;;;9.07;8.32;;;;;;;17.57;69.12;100156.03;6337734;22;20116;-74
2021/06/11 04:00:32;;;;;;;7.68;7.07;;;;;;;18.01;67.97;100161.78;6337960;22;20010;-74
2021/06/11 04:02:59;;;;;;;6.75;6.05;;;;;;;18.37;66.11;100164.28;6338029;22;20513;-74
2021/06/11 04:05:25;;;;;;;6.18;5.68;;;;;;;18.70;64.80;100162.81;6339113;22;20010;-74
2021/06/11 04:07:53;;;;;;;5.82;5.32;;;;;;;19.03;63.46;100168.88;6338023;22;20407;-74
2021/06/11 04:10:33;;;;;;;8.70;7.90;;;;;;;19.30;62.07;100166.91;6337665;22;20007;-74
2021/06/11 04:13:18;;;;;;;9.18;7.63;;;;;;;19.70;61.62;100161.53;6339690;22;20058;-74
2021/06/11 04:15:50;;;;;;;6.40;5.80;;;;;;;20.04;60.27;100175.56;6337651;22;20011;-75
2021/06/11 04:18:23;;;;;;;5.97;5.57;;;;;;;20.39;59.07;100162.84;6337681;22;20007;-75
2021/06/11 04:20:59;;;;;;;10.07;5.97;;;;;;;20.71;57.66;100167.16;6337948;22;20419;-74
2021/06/11 04:23:27;;;;;;;7.88;7.15;;;;;;;21.03;57.13;100171.38;6337353;22;20014;-74
2021/06/11 04:25:56;;;;;;;15.82;13.35;;;;;;;21.33;56.55;100168.38;6338003;22;20007;-74
2021/06/11 04:28:24;;;;;;;15.38;13.13;;;;;;;21.69;55.83;100174.06;6337453;22;20081;-73
2021/06/11 04:30:53;;;;;;;12.40;11.10;;;;;;;22.09;55.08;100173.13;6337504;22;20003;-74
2021/06/11 04:33:25;;;;;;;9.23;8.10;;;;;;;22.28;54.26;100172.28;6338447;22;20311;-74
2021/06/11 04:35:51;;;;;;;7.70;5.90;;;;;;;22.63;53.27;100181.06;6337442;22;20003;-74
2021/06/11 04:38:17;;;;;;;5.03;4.63;;;;;;;23.06;52.31;100177.09;6337466;22;20007;-74
2021/06/11 04:40:46;;;;;;;5.10;4.70;;;;;;;23.53;51.06;100178.13;6337521;22;20086;-74
2021/06/11 04:43:12;;;;;;;5.13;4.70;;;;;;;23.98;49.52;100174.31;6338650;22;20035;-74
2021/06/11 04:45:38;;;;;;;5.20;4.80;;;;;;;24.44;48.40;100189.06;6313351;22;20014;-74
2021/06/11 04:48:06;;;;;;;5.55;5.15;;;;;;;24.75;48.00;100179.88;6339127;22;20006;-74
2021/06/11 04:50:32;;;;;;;5.25;4.63;;;;;;;24.89;46.49;100184.28;6339072;22;20017;-74
2021/06/11 04:52:58;;;;;;;4.72;4.35;;;;;;;25.22;46.10;100187.56;6339442;22;20484;-74
2021/06/11 04:55:26;;;;;;;4.65;4.30;;;;;;;25.58;45.29;100189.88;6339020;22;20003;-74
2021/06/11 04:57:53;;;;;;;5.47;4.38;;;;;;;25.83;44.63;100194.59;6339644;22;20015;-75
2021/06/11 05:00:21;;;;;;;4.78;4.47;;;;;;;25.41;45.47;100192.13;6338687;22;20002;-74
2021/06/11 05:02:49;;;;;;;4.43;4.13;;;;;;;24.86;45.63;100191.69;6338619;22;20465;-74
2021/06/11 05:05:15;;;;;;;5.07;4.68;;;;;;;23.50;48.65;100190.41;6338611;22;20003;-74
2021/06/11 05:07:41;;;;;;;6.18;5.60;;;;;;;23.02;51.55;100194.25;6338717;22;20014;-74
2021/06/11 05:10:07;;;;;;;6.18;5.57;;;;;;;21.98;58.32;100190.38;6339269;22;20007;-73
2021/06/11 05:12:34;;;;;;;13.02;10.55;;;;;;;21.82;59.02;100187.50;6338510;22;20007;-74
2021/06/11 05:15:02;;;;;;;12.35;10.93;;;;;;;22.02;56.23;100184.63;6338972;22;20017;-73
2021/06/11 05:17:27;;;;;;;10.73;9.80;;;;;;;21.95;56.70;100186.41;6338694;22;20007;-74
2021/06/11 05:19:53;;;;;;;10.25;9.20;;;;;;;22.55;54.40;100194.66;6338958;22;20086;-73
2021/06/11 05:22:20;;;;;;;12.20;8.75;;;;;;;23.06;52.32;100194.13;6339564;22;20017;-74
2021/06/11 05:24:46;;;;;;;9.77;8.82;;;;;;;22.99;51.80;100204.44;6338239;22;20022;-74
2021/06/11 05:27:17;;;;;;;9.38;8.48;;;;;;;23.31;51.51;100201.94;6339176;22;20010;-74
2021/06/11 05:29:47;;;;;;;8.68;7.78;;;;;;;24.06;49.94;100203.28;6339067;22;20013;-74
2021/06/11 05:32:13;;;;;;;10.52;7.88;;;;;;;24.63;48.29;100223.41;6338285;22;20089;-74
2021/06/11 05:34:40;;;;;;;8.88;7.28;;;;;;;24.60;48.30;100215.78;6338049;22;20079;-73
2021/06/11 05:37:12;;;;;;;8.23;7.43;;;;;;;24.97;47.17;100219.75;6338778;22;20392;-73
2021/06/11 05:39:43;;;;;;;9.88;7.38;;;;;;;24.80;47.62;100221.97;6338119;22;20002;-73
2021/06/11 05:42:14;;;;;;;7.85;6.43;;;;;;;25.23;47.45;100220.47;6338522;22;20011;-73
2021/06/11 05:44:43;;;;;;;6.45;5.85;;;;;;;25.95;45.53;100218.59;6338023;22;20002;-74
2021/06/11 05:47:08;;;;;;;7.03;6.32;;;;;;;25.99;44.52;100210.66;6338256;22;20010;-73
2021/06/11 05:49:34;;;;;;;7.25;6.55;;;;;;;26.04;43.53;100222.25;6338620;22;20010;-73
2021/06/11 05:51:59;;;;;;;5.97;5.57;;;;;;;26.22;42.70;100220.75;6338278;22;20006;-73
2021/06/11 05:54:25;;;;;;;8.07;5.38;;;;;;;26.58;42.46;100218.03;6338034;22;20014;-74
2021/06/11 05:56:51;;;;;;;7.53;5.45;;;;;;;26.15;42.96;100223.88;6338821;22;20029;-73
2021/06/11 05:59:16;;;;;;;9.23;6.50;;;;;;;26.03;44.85;100226.34;6338132;22;20437;-74
2021/06/11 06:01:42;;;;;;;6.20;5.80;;;;;;;25.95;46.61;100224.28;6338858;22;20011;-73
2021/06/11 06:04:13;;;;;;;6.72;6.20;;;;;;;25.69;47.62;100227.28;6338135;22;20461;-73
2021/06/11 06:06:41;;;;;;;6.68;6.07;;;;;;;25.72;47.44;100228.38;6338103;22;20010;-73
2021/06/11 06:09:06;;;;;;;6.35;5.80;;;;;;;25.75;46.46;100227.50;6338012;22;20086;-73
2021/06/11 06:11:32;;;;;;;5.38;4.97;;;;;;;26.04;45.87;100230.78;6337608;22;20072;-74
2021/06/11 06:14:00;;;;;;;5.10;4.60;;;;;;;26.35;44.53;100227.13;6338370;22;20007;-73
2021/06/11 06:16:29;;;;;;;8.10;6.20;;;;;;;26.75;43.78;100232.00;6338506;22;20013;-73
2021/06/11 06:18:55;;;;;;;5.15;4.68;;;;;;;26.82;41.49;100235.31;6337615;22;20438;-74
2021/06/11 06:21:20;;;;;;;4.30;3.90;;;;;;;27.24;40.79;100228.25;6338043;22;20011;-74
2021/06/11 06:23:46;;;;;;;7.05;4.50;;;;;;;27.15;40.84;100229.81;6337123;22;20014;-74
2021/06/11 06:26:11;;;;;;;3.97;3.78;;;;;;;27.79;39.84;100233.88;6337771;22;20034;-73
2021/06/11 06:28:37;;;;;;;4.43;3.92;;;;;;;27.85;38.56;100235.59;6337634;22;20037;-74
2021/06/11 06:31:03;;;;;;;4.10;3.80;;;;;;;28.03;37.39;100234.75;6338136;22;20010;-72
2021/06/11 06:33:28;;;;;;;4.38;3.60;;;;;;;27.13;38.51;100235.22;6338018;22;20462;-73
2021/06/11 06:35:56;;;;;;;4.72;4.43;;;;;;;27.48;38.92;100240.56;6338152;22;20319;-73
2021/06/11 06:38:25;;;;;;;6.43;4.45;;;;;;;27.19;40.48;100234.59;6337795;22;20021;-73
2021/06/11 06:40:58;;;;;;;4.90;4.40;;;;;;;27.31;40.30;100230.75;6338591;22;20078;-73
2021/06/11 06:43:27;;;;;;;;;;;;;;;27.60;39.77;100242.47;6338122;22;20474;-73
2021/06/11 06:45:52;;;;;;;7.20;5.25;;;;;;;27.37;40.14;100235.34;6338119;22;20356;-72
2021/06/11 06:48:21;;;;;;;4.65;4.25;;;;;;;27.30;40.15;100232.03;6337535;22;20038;-72
2021/06/11 06:50:49;;;;;;;4.95;4.50;;;;;;;27.43;39.80;100232.66;6337595;22;20430;-73
2021/06/11 06:53:18;;;;;;;4.68;4.28;;;;;;;27.52;39.38;100238.34;6337984;22;20343;-72
2021/06/11 06:55:47;;;;;;;4.95;3.45;;;;;;;28.22;38.53;100237.53;6336620;22;20094;-72
2021/06/11 06:58:18;;;;;;;4.50;4.20;;;;;;;27.81;38.98;100228.50;6336775;22;20408;-72
2021/06/11 07:00:43;;;;;;;4.57;4.28;;;;;;;28.46;38.13;100232.69;6336069;22;20390;-73
2021/06/11 07:03:09;;;;;;;5.40;3.53;;;;;;;28.81;37.61;100246.44;6337390;22;20006;-73
2021/06/11 07:05:38;;;;;;;6.10;4.15;;;;;;;28.29;38.71;100248.66;6337341;22;20011;-73
2021/06/11 07:08:04;;;;;;;4.70;4.20;;;;;;;29.05;37.51;100237.88;6336686;22;20432;-73
2021/06/11 07:10:32;;;;;;;4.35;4.05;;;;;;;28.69;37.52;100243.34;6337182;22;20034;-72
2021/06/11 07:12:58;;;;;;;4.65;4.28;;;;;;;28.57;38.12;100250.09;6337119;22;20014;-72
2021/06/11 07:15:23;;;;;;;4.88;4.38;;;;;;;28.14;39.19;100246.47;6337693;22;20011;-73
2021/06/11 07:17:49;;;;;;;4.82;4.47;;;;;;;27.90;40.03;100239.88;6337053;22;20030;-73
2021/06/11 07:20:15;;;;;;;5.45;5.05;;;;;;;27.91;40.48;100238.59;6337251;22;19999;-72
2021/06/11 07:22:40;;;;;;;4.50;4.20;;;;;;;28.38;39.44;100228.59;6337303;22;20462;-73
2021/06/11 07:25:10;;;;;;;5.30;4.90;;;;;;;28.81;38.65;100229.28;6336884;22;20457;-72
2021/06/11 07:27:36;;;;;;;5.70;5.18;;;;;;;28.55;38.90;100231.81;6337102;22;20014;-72
2021/06/11 07:30:07;;;;;;;6.10;5.03;;;;;;;29.11;37.95;100230.19;6337184;22;20003;-72
2021/06/11 07:32:35;;;;;;;5.22;4.82;;;;;;;28.60;38.23;100231.94;6337152;22;20042;-73
2021/06/11 07:35:01;;;;;;;6.07;5.47;;;;;;;28.70;38.11;100233.47;6337789;22;20354;-72
2021/06/11 07:37:32;;;;;;;6.35;5.85;;;;;;;28.06;39.96;100233.00;6337263;22;20006;-72
2021/06/11 07:39:58;;;;;;;5.35;4.93;;;;;;;29.10;37.53;100229.41;6337706;22;20010;-71
2021/06/11 07:42:24;;;;;;;5.93;5.40;;;;;;;29.25;37.87;100223.72;6337432;22;20025;-73
2021/06/11 07:44:49;;;;;;;5.82;5.32;;;;;;;29.04;38.16;100228.50;6337804;22;20418;-72
2021/06/11 07:47:15;;;;;;;5.70;5.30;;;;;;;29.06;37.99;100225.13;6337254;22;20010;-72
2021/06/11 07:49:42;;;;;;;5.43;5.03;;;;;;;29.42;37.31;100236.28;6337500;22;20021;-73
2021/06/11 07:52:10;;;;;;;6.70;6.10;;;;;;;28.75;37.98;100232.00;6337351;22;20007;-73
2021/06/11 07:54:36;;;;;;;5.72;5.25;;;;;;;29.15;37.73;100231.59;6337956;22;20014;-72
2021/06/11 07:57:02;;;;;;;10.73;5.65;;;;;;;29.37;36.95;100231.22;6338252;22;19999;-73
2021/06/11 07:59:27;;;;;;;6.05;5.50;;;;;;;29.33;36.56;100235.56;6337821;22;20003;-72
2021/06/11 08:01:53;;;;;;;6.40;4.95;;;;;;;30.16;35.33;100230.56;6337650;22;20459;-73
2021/06/11 08:04:19;;;;;;;5.20;4.80;;;;;;;30.48;34.36;100230.78;6337153;22;20422;-72
2021/06/11 08:06:46;;;;;;;4.57;4.28;;;;;;;30.29;35.18;100230.25;6337086;22;20085;-72
2021/06/11 08:09:19;;;;;;;4.75;4.35;;;;;;;29.99;34.62;100226.63;6338582;22;20447;-72
2021/06/11 08:11:51;;;;;;;6.38;5.82;;;;;;;30.93;33.48;100232.19;6338904;22;20403;-71
2021/06/11 08:14:19;;;;;;;4.30;3.90;;;;;;;30.86;31.76;100226.88;6337001;22;20006;-72
2021/06/11 08:16:45;;;;;;;3.88;3.58;;;;;;;31.41;30.79;100220.22;6337643;22;20007;-72
2021/06/11 08:19:10;;;;;;;3.92;3.63;;;;;;;31.94;30.91;100233.31;6338370;22;20007;-73
2021/06/11 08:21:38;;;;;;;3.17;2.97;;;;;;;31.74;28.69;100225.50;6338890;22;20010;-72
2021/06/11 08:24:04;;;;;;;3.50;3.20;;;;;;;30.84;30.47;100234.41;6338562;22;20414;-73
2021/06/11 08:26:32;;;;;;;9.48;5.55;;;;;;;30.72;31.27;100227.75;6338977;22;20007;-73
2021/06/11 08:29:04;;;;;;;3.15;2.95;;;;;;;30.92;30.67;100235.56;6339457;22;20403;-73
2021/06/11 08:31:35;;;;;;;3.58;3.28;;;;;;;30.85;31.61;100230.28;6313453;22;20035;-72
2021/06/11 08:34:01;;;;;;;3.70;3.40;;;;;;;30.78;32.12;100237.22;6339071;22;20009;-72
2021/06/11 08:36:29;;;;;;;7.60;3.30;;;;;;;31.27;31.56;100230.56;6338982;22;20007;-73
2021/06/11 08:39:00;;;;;;;5.57;4.05;;;;;;;31.64;30.54;100235.63;6339515;22;20101;-72
2021/06/11 08:41:28;;;;;;;4.45;3.83;;;;;;;32.13;30.67;100239.47;6338893;22;20013;-73
2021/06/11 08:43:58;;;;;;;3.28;2.97;;;;;;;32.59;28.03;100247.13;6339373;22;20446;-71
2021/06/11 08:46:25;;;;;;;3.58;3.30;;;;;;;31.99;29.38;100246.16;6339403;22;20076;-72
2021/06/11 08:48:52;;;;;;;3.72;3.40;;;;;;;31.35;30.53;100232.97;6340348;22;19999;-72
2021/06/11 08:51:23;;;;;;;4.38;2.90;;;;;;;31.62;27.49;100234.56;6339569;22;20411;-73
2021/06/11 08:53:54;;;;;;;3.45;3.15;;;;;;;32.31;27.99;100233.31;6338991;22;20006;-73
2021/06/11 08:56:23;;;;;;;2.78;2.58;;;;;;;33.26;27.27;100241.69;6339062;22;20035;-74
2021/06/11 08:58:53;;;;;;;4.75;3.33;;;;;;;33.10;27.51;100236.69;6338843;22;20434;-72
2021/06/11 09:01:19;;;;;;;4.20;3.80;;;;;;;32.58;28.56;100240.59;6338815;22;20007;-72
2021/06/11 09:03:52;;;;;;;3.50;3.25;;;;;;;31.43;29.70;100237.78;6339637;22;20014;-73
2021/06/11 09:06:23;;;;;;;3.25;2.83;;;;;;;30.74;30.81;100248.94;6339205;22;20040;-73
2021/06/11 09:09:01;;;;;;;3.55;3.28;;;;;;;30.37;32.25;100236.38;6339444;22;20078;-72
2021/06/11 09:11:32;;;;;;;3.50;3.30;;;;;;;30.46;31.88;100241.97;6338816;22;20014;-71
2021/06/11 09:14:07;;;;;;;3.50;3.20;;;;;;;31.71;30.25;100237.25;6339703;22;20296;-72
2021/06/11 09:16:51;;;;;;;3.90;3.25;;;;;;;32.81;28.38;100238.63;6340043;22;20082;-73
2021/06/11 09:19:20;;;;;;;5.80;3.25;;;;;;;32.78;27.12;100239.66;6338637;22;20011;-73
2021/06/11 09:21:48;;;;;;;3.13;2.92;;;;;;;32.33;26.58;100236.50;6338809;22;20007;-71
2021/06/11 09:24:26;;;;;;;4.55;2.70;;;;;;;32.69;26.88;100234.09;6338266;22;20022;-72
2021/06/11 09:26:57;;;;;;;2.60;2.50;;;;;;;33.24;25.95;100243.50;6339936;22;20077;-72
2021/06/11 09:29:32;;;;;;;3.00;2.63;;;;;;;33.91;25.59;100245.78;6338241;22;20093;-73
2021/06/11 09:32:27;;;;;;;4.00;3.70;;;;;;;32.77;27.37;100237.28;6340700;22;19998;-72
2021/06/11 09:35:00;;;;;;;4.07;3.78;;;;;;;32.54;27.55;100236.38;6338413;22;20010;-72
2021/06/11 09:37:33;;;;;;;4.47;3.90;;;;;;;31.85;28.78;100235.56;6338972;22;20368;-72
2021/06/11 09:40:16;;;;;;;4.15;3.72;;;;;;;31.12;30.37;100231.91;6333814;22;20015;-71
2021/06/11 09:42:45;;;;;;;3.83;3.53;;;;;;;31.44;29.37;100229.94;6338496;22;20422;-73
2021/06/11 09:45:14;;;;;;;3.88;3.63;;;;;;;31.96;28.79;100218.41;6338593;22;20003;-71
2021/06/11 09:47:48;;;;;;;3.83;3.47;;;;;;;32.83;27.99;100243.88;6337551;22;20003;-72
2021/06/11 09:50:15;;;;;;;5.15;3.35;;;;;;;33.79;26.30;100228.47;6340486;22;20002;-72
2021/06/11 09:53:01;;;;;;;3.38;3.08;;;;;;;33.69;26.72;100232.91;6338822;22;20307;-72
2021/06/11 09:55:36;;;;;;;4.90;4.22;;;;;;;33.91;26.10;100231.34;6338310;22;19999;-72
2021/06/11 09:58:10;;;;;;;5.57;3.38;;;;;;;34.90;25.43;100232.53;6338696;22;20010;-72
2021/06/11 10:00:42;;;;;;;8.98;4.28;;;;;;;33.33;28.31;100235.41;6338117;22;20007;-71
2021/06/11 10:03:16;;;;;;;3.95;3.65;;;;;;;33.46;28.29;100231.31;6339479;22;20075;-72
2021/06/11 10:05:43;;;;;;;3.92;3.50;;;;;;;33.34;28.80;100237.00;6339054;22;20052;-72
2021/06/11 10:08:13;;;;;;;3.90;3.50;;;;;;;33.17;28.42;100218.09;6338654;22;20061;-72
2021/06/11 10:10:41;;;;;;;4.00;3.70;;;;;;;33.49;28.59;100227.38;6334347;22;20322;-73
2021/06/11 10:13:09;;;;;;;5.60;3.50;;;;;;;32.46;30.05;100215.13;6338613;22;20353;-71
2021/06/11 10:15:34;;;;;;;4.10;3.80;;;;;;;32.32;30.29;100229.13;6338159;22;20174;-72
2021/06/11 10:18:02;;;;;;;3.90;3.60;;;;;;;33.20;28.86;100219.94;6338251;22;20007;-73
2021/06/11 10:20:28;;;;;;;3.80;3.50;;;;;;;33.53;28.74;100219.25;6338037;22;20457;-71
2021/06/11 10:22:59;;;;;;;4.30;3.60;;;;;;;33.77;28.86;100219.53;6338008;22;19999;-72
2021/06/11 10:25:28;;;;;;;3.75;3.50;;;;;;;33.86;28.79;100215.59;6312054;22;20089;-71
2021/06/11 10:27:55;;;;;;;3.70;3.40;;;;;;;33.51;28.39;100219.00;6312137;22;20010;-72
2021/06/11 10:30:28;;;;;;;6.65;4.00;;;;;;;33.16;29.02;100207.88;6312014;22;20003;-71
2021/06/11 10:32:57;;;;;;;3.55;3.35;;;;;;;33.91;28.35;100222.69;6312003;22;20003;-71
2021/06/11 10:35:46;;;;;;;5.47;3.90;;;;;;;33.59;28.75;100223.72;6311934;22;20010;-70
2021/06/11 10:38:30;;;;;;;4.28;3.90;;;;;;;33.14;29.27;100214.16;6312495;22;20003;-73
2021/06/11 10:40:59;;;;;;;4.65;3.78;;;;;;;32.29;30.12;100212.91;6311556;22;20002;-72
2021/06/11 10:43:28;;;;;;;4.03;3.72;;;;;;;32.38;30.22;100214.03;6312090;22;20338;-72
2021/06/11 10:46:00;;;;;;;4.28;3.85;;;;;;;31.96;30.56;100206.88;6311425;22;20015;-71
2021/06/11 10:49:06;;;;;;;4.03;3.75;;;;;;;31.68;30.86;100181.53;6311968;22;19998;-72
2021/06/11 10:51:39;;;;;;;5.45;3.70;;;;;;;32.53;30.17;100198.16;6312413;22;20011;-73
2021/06/11 10:54:20;;;;;;;;;;;;;;;31.83;30.67;100198.69;6312511;22;20007;-74
2021/06/11 10:56:56;;;;;;;3.70;3.22;;;;;;;31.64;30.59;100203.19;6338886;22;19903;-73
2021/06/11 10:59:35;;;;;;;5.50;3.90;;;;;;;31.72;30.73;100198.56;6311223;22;20368;-73
2021/06/11 11:02:02;;;;;;;3.10;2.90;;;;;;;31.12;31.69;100186.72;6310692;22;20007;-74
2021/06/11 11:04:36;;;;;;;4.03;3.65;;;;;;;31.47;31.90;100182.91;6311813;22;20007;-73
2021/06/11 11:07:20;;;;;;;4.45;4.05;;;;;;;31.86;31.34;100183.31;6311156;22;20057;-72
2021/06/11 11:10:07;;;;;;;3.58;2.92;;;;;;;32.07;31.27;100178.22;6310874;22;20014;-74
2021/06/11 11:12:59;;;;;;;3.75;3.45;;;;;;;32.11;30.57;100175.88;6307659;22;20021;-72
2021/06/11 11:15:35;;;;;;;3.83;3.42;;;;;;;32.11;29.82;100170.13;6311176;22;20006;-72
2021/06/11 11:18:01;;;;;;;3.58;3.28;;;;;;;32.26;29.32;100167.88;6339125;22;20476;-73
2021/06/11 11:20:33;;;;;;;3.15;2.42;;;;;;;31.13;29.95;100165.31;6311240;22;20052;-73
2021/06/11 11:23:01;;;;;;;6.43;3.15;;;;;;;31.00;30.18;100179.25;6311073;22;20113;-73
2021/06/11 11:25:28;;;;;;;3.30;3.10;;;;;;;31.62;29.55;100169.19;6311455;22;20036;-74
2021/06/11 11:27:59;;;;;;;5.03;2.97;;;;;;;31.81;28.75;100170.44;6339275;22;20041;-74
2021/06/11 11:30:27;;;;;;;3.75;3.35;;;;;;;32.07;28.13;100166.72;6311314;22;20010;-74
2021/06/11 11:32:57;;;;;;;2.92;2.72;;;;;;;32.10;27.84;100159.91;6311384;22;20007;-73
2021/06/11 11:35:28;;;;;;;2.90;2.70;;;;;;;32.24;28.33;100161.84;6339109;22;20003;-73